Observations for Trim Patrick St
| Time | AQI | Temp °C | Hum % | Pres Pa | CO μg/m³ | H₂S μg/m³ | NO μg/m³ | NO₂ μg/m³ | O₃ μg/m³ | SO₂ μg/m³ | PM1 μg/m³ | PM2.5 μg/m³ | PM10 μg/m³ |
|---|---|---|---|---|---|---|---|---|---|---|---|---|---|
| Thursday 6 August 2026 | |||||||||||||
| 18:36 | 3 | 23.7 | 43 | 68,857 | 0 | 11.36 | 1.54 | 21.84 | 67.87 | 7.14 | 2 | 6.87 | 7.55 |
| 18:35 | 3 | 23.6 | 43 | 68,861 | 0 | 8.5 | 1.51 | 16.34 | 60.42 | 6.48 | 2 | 7.64 | 8.4 |
| 18:34 | 3 | 23.5 | 44 | 68,869 | 0 | 11.5 | 1.42 | 15.08 | 66.25 | 8.09 | 2 | 6.81 | 7.49 |
| 18:33 | 3 | 23.4 | 43 | 68,875 | 0 | 12.06 | 1.37 | 16.76 | 67.46 | 7.56 | 2 | 6.85 | 7.54 |
| 18:32 | 3 | 23.4 | 43 | 68,888 | 0 | 13.17 | 1.37 | 20.81 | 61.86 | 7.58 | 2 | 6.85 | 7.53 |
| 18:31 | 3 | 23.3 | 42 | 68,873 | 0 | 12.17 | 1.41 | 21.6 | 62.59 | 7.27 | 2 | 6.89 | 7.58 |
| 18:29 | 3 | 23.3 | 43 | 68,865 | 0 | 9.86 | 1.39 | 14.03 | 62.25 | 7.48 | 2 | 6.86 | 7.55 |
| 18:28 | 3 | 23.2 | 43 | 68,845 | 0 | 13.15 | 1.42 | 14.94 | 70.38 | 8.06 | 2 | 6.87 | 7.55 |
| 18:27 | 3 | 23.2 | 42 | 68,849 | 0 | 15 | 1.44 | 27.35 | 54.41 | 7.62 | 2 | 6.91 | 7.6 |
| 18:26 | 3 | 23.2 | 42 | 68,851 | 0 | 12.22 | 1.43 | 20.58 | 63.84 | 7.45 | 2 | 6.89 | 7.58 |
| 18:25 | 3 | 23.2 | 42 | 68,827 | 0 | 11.35 | 1.43 | 12.13 | 68.86 | 7.32 | 2 | 6.89 | 7.58 |
| 18:24 | 3 | 23.2 | 42 | 68,825 | 0 | 13.87 | 1.47 | 19.19 | 70.13 | 8.2 | 2 | 6.9 | 7.59 |
| 18:23 | 3 | 23.3 | 42 | 68,855 | 0 | 11 | 1.47 | 10.12 | 63.47 | 7.67 | 2 | 6.9 | 7.59 |
| 18:22 | 3 | 23.3 | 42 | 68,863 | 0 | 14.6 | 1.54 | 17.43 | 72.5 | 8.09 | 2 | 6.89 | 7.58 |
| 18:21 | 3 | 23.3 | 42 | 68,876 | 0 | 11.37 | 1.46 | 14.07 | 70.68 | 7.69 | 2 | 6.91 | 7.6 |
| 18:20 | 3 | 23.3 | 42 | 68,863 | 0 | 13.25 | 1.46 | 10.84 | 75.52 | 8.19 | 2 | 7.68 | 8.45 |
| 18:19 | 3 | 23.3 | 42 | 68,845 | 0 | 16.11 | 1.59 | 21.4 | 67.1 | 8.15 | 2 | 6.95 | 7.64 |
| 18:18 | 3 | 23.4 | 42 | 68,849 | 0 | 10.87 | 1.71 | 18.55 | 66.55 | 7.28 | 2 | 6.94 | 7.64 |
| 18:17 | 3 | 23.4 | 42 | 68,857 | 0 | 11.16 | 1.55 | 9.38 | 72.12 | 7.65 | 2 | 6.91 | 7.6 |
| 18:16 | 3 | 23.4 | 42 | 68,867 | 0 | 12.91 | 1.56 | 19.55 | 64.83 | 8.04 | 2 | 6.93 | 7.62 |